createdAt,value
2018-04-10T00:02:25.101Z,56.80
2018-04-10T00:04:53.241Z,57.30
2018-04-10T00:07:21.385Z,57.40
2018-04-10T00:09:49.508Z,57.20
2018-04-10T00:12:18.384Z,57.50
2018-04-10T00:14:47.296Z,58.40
2018-04-10T00:17:15.425Z,57.90
2018-04-10T00:19:45.048Z,57.90
2018-04-10T00:22:13.187Z,57.80
2018-04-10T00:24:41.325Z,58.00
2018-04-10T00:27:09.478Z,57.80
2018-04-10T00:29:38.348Z,58.10
2018-04-10T00:32:06.466Z,58.10
2018-04-10T00:34:34.626Z,58.20
2018-04-10T00:37:03.646Z,58.50
2018-04-10T00:39:31.755Z,58.50
2018-04-10T00:42:00.648Z,58.50
2018-04-10T00:44:28.798Z,58.50
2018-04-10T00:46:56.938Z,58.90
2018-04-10T00:49:25.809Z,59.40
2018-04-10T00:51:54.693Z,59.10
2018-04-10T00:54:23.617Z,59.60
2018-04-10T00:56:51.769Z,59.60
2018-04-10T00:59:20.668Z,59.30
2018-04-10T01:01:49.545Z,59.90
2018-04-10T01:04:18.437Z,59.40
2018-04-10T01:06:47.353Z,59.70
2018-04-10T01:09:15.509Z,59.70
2018-04-10T01:11:44.394Z,60.90
2018-04-10T01:14:13.287Z,60.90
2018-04-10T01:16:42.177Z,61.00
2018-04-10T01:19:11.065Z,61.00
2018-04-10T01:21:39.957Z,61.10
2018-04-10T01:24:08.851Z,60.30
2018-04-10T01:26:37.759Z,59.90
2018-04-10T01:29:05.881Z,59.80
2018-04-10T01:31:34.021Z,59.90
2018-04-10T01:34:02.164Z,59.70
2018-04-10T01:36:30.317Z,59.90
2018-04-10T01:38:58.472Z,59.40
2018-04-10T01:41:26.697Z,59.40
2018-04-10T01:43:54.872Z,59.30
2018-04-10T01:46:23.005Z,59.00
2018-04-10T01:48:51.133Z,59.70
2018-04-10T01:51:19.249Z,59.40
2018-04-10T01:53:48.873Z,60.40
2018-04-10T01:56:17.773Z,59.60
2018-04-10T01:58:46.777Z,59.50
2018-04-10T02:01:14.917Z,59.50
2018-04-10T02:03:44.541Z,59.30
2018-04-10T02:06:13.428Z,59.30
2018-04-10T02:08:42.365Z,58.90
2018-04-10T02:11:10.524Z,58.80
2018-04-10T02:13:38.634Z,59.10
2018-04-10T02:16:06.856Z,59.20
2018-04-10T02:18:35.857Z,59.10
2018-04-10T02:21:03.979Z,59.10
2018-04-10T02:23:32.100Z,59.40
2018-04-10T02:26:00.276Z,59.40
2018-04-10T02:28:28.405Z,59.30
2018-04-10T02:30:58.029Z,58.90
2018-04-10T02:33:26.145Z,58.80
2018-04-10T02:35:54.260Z,59.00
2018-04-10T02:38:22.392Z,58.90
2018-04-10T02:40:50.501Z,58.90
2018-04-10T02:43:18.617Z,59.10
2018-04-10T02:45:46.746Z,58.90
2018-04-10T02:48:14.906Z,59.40
2018-04-10T02:50:43.019Z,59.40
2018-04-10T02:53:11.953Z,58.90
2018-04-10T02:55:40.065Z,58.90
2018-04-10T02:58:08.201Z,58.80
2018-04-10T03:00:36.317Z,59.00
2018-04-10T03:03:04.435Z,59.00
2018-04-10T03:05:32.573Z,58.70
2018-04-10T03:08:01.499Z,59.30
2018-04-10T03:10:29.628Z,59.30
2018-04-10T03:12:57.753Z,58.80
2018-04-10T03:15:25.905Z,58.80
2018-04-10T03:17:54.014Z,59.30
2018-04-10T03:20:22.249Z,58.90
2018-04-10T03:22:50.419Z,58.90
2018-04-10T03:25:18.529Z,58.80
2018-04-10T03:27:46.766Z,58.90
2018-04-10T03:30:14.945Z,58.90
2018-04-10T03:32:43.069Z,59.20
2018-04-10T03:35:11.977Z,58.90
2018-04-10T03:37:40.097Z,58.90
2018-04-10T03:40:08.228Z,59.20
2018-04-10T03:42:37.155Z,59.70
2018-04-10T03:45:05.277Z,59.30
2018-04-10T03:47:33.407Z,59.20
2018-04-10T03:50:01.546Z,59.10
2018-04-10T03:52:30.421Z,59.30
2018-04-10T03:54:58.537Z,59.30
2018-04-10T03:57:26.677Z,59.30
2018-04-10T03:59:55.577Z,59.30
2018-04-10T04:02:24.481Z,60.00
2018-04-10T04:04:52.601Z,59.40
2018-04-10T04:07:20.747Z,59.40
2018-04-10T04:09:48.877Z,59.30
2018-04-10T04:12:17.761Z,59.30
2018-04-10T04:14:45.889Z,59.20
2018-04-10T04:17:40.789Z,59.20
2018-04-10T04:20:20.735Z,59.20
2018-04-10T04:22:48.881Z,59.30
2018-04-10T04:25:17.004Z,59.20
2018-04-10T04:27:45.108Z,59.10
2018-04-10T04:30:14.026Z,59.30
2018-04-10T04:32:42.140Z,59.30
2018-04-10T04:35:10.269Z,59.30
2018-04-10T04:37:38.417Z,59.20
2018-04-10T04:40:07.320Z,59.30
2018-04-10T04:42:35.456Z,59.30
2018-04-10T04:45:03.570Z,59.30
2018-04-10T04:47:31.734Z,59.50
2018-04-10T04:50:00.627Z,59.30
2018-04-10T04:52:29.508Z,59.70
2018-04-10T04:54:58.390Z,59.50
2018-04-10T04:57:26.534Z,59.50
2018-04-10T04:59:54.662Z,59.70
2018-04-10T05:02:22.776Z,59.70
2018-04-10T05:04:50.892Z,59.50
2018-04-10T05:07:19.883Z,59.90
2018-04-10T05:09:48.773Z,60.10
2018-04-10T05:12:17.654Z,60.50
2018-04-10T05:14:46.537Z,60.60
2018-04-10T05:17:14.742Z,60.40
2018-04-10T05:19:43.669Z,60.80
2018-04-10T05:22:11.793Z,60.80
2018-04-10T05:24:40.683Z,60.60
2018-04-10T05:27:09.692Z,60.30
2018-04-10T05:29:38.611Z,61.10
2018-04-10T05:32:06.737Z,61.10
2018-04-10T05:34:35.633Z,61.00
2018-04-10T05:37:04.837Z,62.10
2018-04-10T05:39:33.019Z,62.10
2018-04-10T05:42:01.169Z,61.40
2018-04-10T05:44:30.049Z,61.40
2018-04-10T05:46:58.180Z,61.10
2018-04-10T05:49:26.321Z,61.50
2018-04-10T05:51:54.491Z,61.60
2018-04-10T05:54:23.387Z,62.00
2018-04-10T05:56:52.269Z,61.30
2018-04-10T05:59:21.169Z,61.10
2018-04-10T06:01:49.299Z,61.10
2018-04-10T06:04:17.417Z,61.80
2018-04-10T06:06:45.567Z,61.20
2018-04-10T06:09:14.458Z,62.20
2018-04-10T06:11:43.469Z,62.30
2018-04-10T06:14:12.367Z,62.50
2018-04-10T06:16:40.481Z,62.50
2018-04-10T06:19:08.601Z,62.40
2018-04-10T06:21:37.493Z,62.10
2018-04-10T06:24:06.382Z,62.10
2018-04-10T06:26:35.263Z,62.10
2018-04-10T06:29:04.161Z,62.10
2018-04-10T06:31:33.054Z,61.90
2018-04-10T06:34:01.940Z,62.70
2018-04-10T06:36:30.838Z,62.70
2018-04-10T06:38:59.744Z,62.10
2018-04-10T06:41:27.890Z,62.10
2018-04-10T06:43:56.774Z,62.20
2018-04-10T06:46:24.902Z,62.20
2018-04-10T06:48:53.016Z,62.50
2018-04-10T06:51:21.182Z,62.50
2018-04-10T06:53:49.314Z,62.50
2018-04-10T06:56:17.430Z,62.60
2018-04-10T06:58:47.078Z,62.40
2018-04-10T07:01:15.230Z,62.30
2018-04-10T07:03:44.146Z,62.60
2018-04-10T07:06:12.293Z,62.50
2018-04-10T07:08:41.198Z,62.40
2018-04-10T07:11:09.334Z,62.40
2018-04-10T07:13:37.469Z,62.00
2018-04-10T07:16:05.585Z,62.10
2018-04-10T07:18:33.729Z,62.10
2018-04-10T07:21:01.853Z,62.00
2018-04-10T07:23:30.743Z,62.00
2018-04-10T07:25:59.654Z,62.10
2018-04-10T07:28:27.776Z,62.10
2018-04-10T07:30:56.685Z,61.90
2018-04-10T07:33:25.609Z,61.60
2018-04-10T07:35:53.765Z,62.00
2018-04-10T07:38:22.649Z,62.30
2018-04-10T07:40:51.582Z,62.20
2018-04-10T07:43:20.137Z,62.20
2018-04-10T07:45:48.313Z,62.10
2018-04-10T07:48:16.421Z,62.10
2018-04-10T07:50:44.651Z,61.60
2018-04-10T07:53:13.544Z,61.60
2018-04-10T07:55:41.669Z,61.60
2018-04-10T07:58:09.784Z,61.40
2018-04-10T08:00:38.683Z,61.30
2018-04-10T08:03:07.590Z,61.30
2018-04-10T08:05:35.721Z,61.30
2018-04-10T08:08:03.825Z,60.90
2018-04-10T08:10:31.934Z,60.60
2018-04-10T08:13:00.068Z,60.50
2018-04-10T08:15:28.947Z,60.40
2018-04-10T08:17:57.835Z,60.70
2018-04-10T08:20:26.829Z,60.80
2018-04-10T08:22:55.736Z,60.90
2018-04-10T08:25:23.904Z,60.90
2018-04-10T08:27:52.020Z,59.80
2018-04-10T08:30:20.129Z,59.10
2018-04-10T08:32:49.024Z,59.00
2018-04-10T08:35:17.906Z,59.10
2018-04-10T08:37:47.538Z,59.50
2018-04-10T08:40:15.645Z,59.50
2018-04-10T08:42:43.761Z,59.60
2018-04-10T08:45:12.666Z,59.50
2018-04-10T08:47:41.582Z,59.50
2018-04-10T08:50:09.672Z,59.50
2018-04-10T08:52:37.785Z,59.80
2018-04-10T08:55:07.337Z,59.10
2018-04-10T08:57:35.482Z,59.10
2018-04-10T09:00:04.358Z,59.30
2018-04-10T09:02:33.270Z,58.70
2018-04-10T09:05:01.382Z,58.70
2018-04-10T09:07:29.495Z,58.70
2018-04-10T09:09:58.426Z,58.40
2018-04-10T09:12:26.568Z,58.40
2018-04-10T09:14:55.463Z,58.00
2018-04-10T09:17:24.382Z,57.80
2018-04-10T09:19:52.510Z,57.70
2018-04-10T09:22:21.396Z,57.70
2018-04-10T09:24:49.508Z,57.70
2018-04-10T09:27:17.674Z,57.50
2018-04-10T09:29:45.792Z,57.60
2018-04-10T09:32:13.906Z,57.50
2018-04-10T09:34:42.901Z,57.60
2018-04-10T09:37:11.008Z,57.60
2018-04-10T09:39:39.142Z,57.30
2018-04-10T09:42:08.102Z,57.50
2018-04-10T09:44:36.566Z,57.50
2018-04-10T09:47:04.649Z,57.60
2018-04-10T09:49:32.867Z,57.00
2018-04-10T09:52:01.757Z,56.20
2018-04-10T09:54:30.646Z,57.00
2018-04-10T09:56:59.628Z,56.10
2018-04-10T09:59:28.508Z,56.20
2018-04-10T10:01:56.702Z,56.20
2018-04-10T10:04:26.505Z,55.60
2018-04-10T10:06:55.440Z,54.90
2018-04-10T10:09:23.518Z,55.00
2018-04-10T10:11:51.624Z,54.70
2018-04-10T10:14:19.759Z,55.90
2018-04-10T10:16:47.862Z,55.30
2018-04-10T10:19:15.986Z,55.80
2018-04-10T10:21:44.119Z,55.80
2018-04-10T10:24:12.220Z,55.20
2018-04-10T10:26:40.327Z,54.60
2018-04-10T10:29:08.476Z,53.50
2018-04-10T10:31:36.589Z,54.50
2018-04-10T10:34:04.749Z,55.00
2018-04-10T10:36:32.845Z,54.40
2018-04-10T10:39:00.983Z,54.30
2018-04-10T10:41:29.131Z,54.00
2018-04-10T10:43:58.153Z,53.70
2018-04-10T10:46:26.242Z,53.70
2018-04-10T10:48:54.353Z,53.70
2018-04-10T10:51:22.530Z,53.80
2018-04-10T10:53:51.408Z,53.60
2018-04-10T10:56:19.571Z,53.60
2018-04-10T10:58:47.673Z,53.60
2018-04-10T11:01:16.549Z,51.60
2018-04-10T11:03:44.721Z,51.60
2018-04-10T11:06:12.825Z,51.00
2018-04-10T11:08:40.951Z,50.40
2018-04-10T11:11:09.118Z,51.20
2018-04-10T11:13:37.465Z,53.00
2018-04-10T11:16:05.541Z,53.20
2018-04-10T11:18:33.689Z,53.50
2018-04-10T11:21:01.857Z,53.80
2018-04-10T11:23:30.770Z,54.00
2018-04-10T11:25:58.937Z,54.00
2018-04-10T11:31:01.602Z,51.70
2018-04-10T11:33:29.798Z,50.60
2018-04-10T11:35:57.935Z,51.30
2018-04-10T11:38:26.063Z,52.70
2018-04-10T11:40:54.187Z,51.20
2018-04-10T11:43:23.849Z,51.70
2018-04-10T11:45:51.953Z,51.70
2018-04-10T11:48:20.073Z,51.40
2018-04-10T11:50:48.257Z,50.80
2018-04-10T11:53:16.414Z,51.00
2018-04-10T11:55:45.335Z,50.70
2018-04-10T11:58:13.459Z,50.70
2018-04-10T12:00:42.330Z,49.40
2018-04-10T12:03:10.446Z,49.50
2018-04-10T12:05:38.563Z,50.10
2018-04-10T12:08:06.686Z,49.70
2018-04-10T12:10:35.546Z,50.60
2018-04-10T12:13:03.671Z,50.60
2018-04-10T12:15:31.817Z,49.60
2018-04-10T12:18:00.685Z,49.10
2018-04-10T12:20:30.294Z,49.10
2018-04-10T12:22:58.409Z,49.10
2018-04-10T12:25:26.565Z,50.00
2018-04-10T12:27:55.717Z,48.80
2018-04-10T12:30:23.821Z,48.80
2018-04-10T12:32:52.693Z,49.80
2018-04-10T12:35:20.829Z,49.80
2018-04-10T12:37:48.949Z,50.00
2018-04-10T12:40:17.051Z,49.70
2018-04-10T12:42:45.185Z,49.30
2018-04-10T12:45:13.296Z,49.40
2018-04-10T12:47:41.490Z,50.20
2018-04-10T12:50:09.665Z,49.60
2018-04-10T12:52:37.828Z,48.40
2018-04-10T12:55:06.792Z,48.30
2018-04-10T12:57:35.691Z,49.20
2018-04-10T13:00:04.586Z,49.70
2018-04-10T13:02:33.552Z,49.70
2018-04-10T13:05:01.682Z,49.70
2018-04-10T13:07:29.801Z,49.90
2018-04-10T13:09:57.920Z,49.60
2018-04-10T13:12:26.028Z,49.10
2018-04-10T13:14:54.269Z,46.90
2018-04-10T13:17:22.372Z,48.40
2018-04-10T13:19:50.481Z,47.60
2018-04-10T13:22:19.365Z,45.20
2018-04-10T13:24:47.497Z,45.20
2018-04-10T13:27:15.603Z,47.40
2018-04-10T13:29:43.793Z,48.00
2018-04-10T13:32:12.785Z,46.70
2018-04-10T13:34:41.775Z,47.70
2018-04-10T13:37:10.648Z,48.60
2018-04-10T13:39:38.803Z,48.60
2018-04-10T13:42:07.021Z,47.90
2018-04-10T13:44:36.974Z,45.60
2018-04-10T13:47:05.069Z,45.70
2018-04-10T13:49:33.286Z,45.40
2018-04-10T13:52:02.199Z,46.20
2018-04-10T13:54:31.060Z,45.70
2018-04-10T13:56:59.959Z,45.90
2018-04-10T13:59:28.884Z,46.00
2018-04-10T14:01:56.981Z,45.90
2018-04-10T14:04:25.127Z,46.10
2018-04-10T14:07:05.859Z,45.30
2018-04-10T14:09:37.421Z,45.80
2018-04-10T14:12:05.569Z,46.70
2018-04-10T14:14:33.673Z,45.80
2018-04-10T14:17:01.821Z,45.80
2018-04-10T14:19:30.697Z,46.30
2018-04-10T14:21:58.820Z,46.40
2018-04-10T14:24:26.970Z,46.70
2018-04-10T14:26:55.993Z,46.20
2018-04-10T14:29:24.168Z,46.20
2018-04-10T14:31:52.264Z,46.30
2018-04-10T14:34:20.386Z,46.40
2018-04-10T14:36:49.302Z,47.00
2018-04-10T14:39:18.154Z,46.80
2018-04-10T14:41:47.087Z,47.40
2018-04-10T14:44:15.187Z,47.50
2018-04-10T14:46:43.396Z,46.40
2018-04-10T14:49:12.322Z,46.90
2018-04-10T14:51:40.440Z,46.80
2018-04-10T14:54:08.563Z,47.40
2018-04-10T14:56:36.714Z,47.40
2018-04-10T14:59:05.594Z,47.40
2018-04-10T15:01:34.466Z,47.20
2018-04-10T15:04:02.665Z,47.20
2018-04-10T15:06:31.548Z,48.40
2018-04-10T15:09:00.427Z,47.50
2018-04-10T15:11:28.551Z,47.50
2018-04-10T15:13:56.657Z,47.30
2018-04-10T15:16:24.829Z,47.20
2018-04-10T15:18:57.305Z,46.90
2018-04-10T15:21:26.739Z,46.90
2018-04-10T15:23:55.610Z,46.40
2018-04-10T15:26:25.265Z,46.80
2018-04-10T15:28:53.369Z,46.80
2018-04-10T15:31:21.598Z,47.30
2018-04-10T15:33:50.492Z,48.00
2018-04-10T15:36:18.606Z,47.90
2018-04-10T15:38:46.761Z,47.10
2018-04-10T15:41:14.878Z,47.30
2018-04-10T15:43:43.024Z,47.00
2018-04-10T15:46:11.274Z,46.70
2018-04-10T15:48:39.378Z,46.80
2018-04-10T15:51:07.507Z,46.20
2018-04-10T15:53:36.399Z,47.10
2018-04-10T15:56:04.515Z,47.10
2018-04-10T15:58:33.406Z,47.20
2018-04-10T16:01:01.582Z,47.40
2018-04-10T16:03:29.715Z,47.20
2018-04-10T16:05:57.813Z,47.40
2018-04-10T16:08:26.048Z,47.40
2018-04-10T16:10:54.988Z,47.70
2018-04-10T16:13:23.110Z,47.70
2018-04-10T16:15:52.062Z,48.10
2018-04-10T16:18:20.276Z,48.10
2018-04-10T16:20:49.152Z,47.80
2018-04-10T16:23:18.036Z,48.10
2018-04-10T16:25:46.241Z,48.00
2018-04-10T16:28:14.415Z,48.20
2018-04-10T16:30:42.545Z,48.50
2018-04-10T16:33:10.885Z,48.70
2018-04-10T16:35:39.030Z,49.10
2018-04-10T16:38:07.935Z,49.30
2018-04-10T16:40:36.069Z,49.20
2018-04-10T16:43:04.221Z,49.50
2018-04-10T16:45:35.225Z,50.70
2018-04-10T16:48:03.381Z,51.20
2018-04-10T16:50:32.282Z,51.80
2018-04-10T16:53:00.384Z,51.80
2018-04-10T16:55:28.513Z,52.60
2018-04-10T16:57:57.418Z,52.20
2018-04-10T17:00:26.293Z,51.80
2018-04-10T17:02:55.208Z,51.90
2018-04-10T17:05:23.337Z,51.80
2018-04-10T17:07:51.491Z,52.10
2018-04-10T17:10:19.610Z,53.50
2018-04-10T17:12:48.765Z,53.50
2018-04-10T17:15:16.949Z,53.50
2018-04-10T17:17:45.065Z,53.80
2018-04-10T17:20:13.209Z,54.00
2018-04-10T17:22:41.327Z,54.20
2018-04-10T17:25:09.433Z,53.50
2018-04-10T17:27:37.589Z,53.60
2018-04-10T17:30:05.709Z,55.00
2018-04-10T17:32:34.584Z,55.30
2018-04-10T17:35:02.729Z,55.30
2018-04-10T17:37:30.849Z,56.10
2018-04-10T17:39:59.739Z,56.00
2018-04-10T17:42:28.617Z,55.90
2018-04-10T17:44:56.739Z,55.80
2018-04-10T17:47:24.973Z,56.50
2018-04-10T17:49:54.356Z,57.30
2018-04-10T17:52:22.455Z,57.30
2018-04-10T17:54:53.210Z,56.30
2018-04-10T17:57:21.336Z,56.30
2018-04-10T17:59:49.444Z,56.40
2018-04-10T18:02:17.622Z,56.10
2018-04-10T18:04:45.778Z,56.80
2018-04-10T18:07:14.702Z,57.00
2018-04-10T18:09:42.810Z,56.90
2018-04-10T18:12:10.961Z,56.30
2018-04-10T18:14:39.067Z,56.30
2018-04-10T18:17:07.188Z,55.90
2018-04-10T18:19:35.328Z,55.90
2018-04-10T18:22:05.743Z,56.80
2018-04-10T18:24:34.824Z,56.40
2018-04-10T18:27:03.492Z,56.10
2018-04-10T18:29:32.390Z,56.10
2018-04-10T18:32:01.493Z,56.30
2018-04-10T18:34:30.554Z,56.50
2018-04-10T18:36:59.710Z,56.40
2018-04-10T18:39:29.210Z,56.10
2018-04-10T18:41:57.988Z,55.90
2018-04-10T18:44:27.064Z,56.00
2018-04-10T18:46:56.852Z,56.10
2018-04-10T18:49:24.968Z,56.20
2018-04-10T18:51:53.172Z,56.20
2018-04-10T18:54:22.104Z,56.20
2018-04-10T18:56:50.234Z,56.20
2018-04-10T18:59:19.440Z,56.60
2018-04-10T19:01:47.556Z,56.60
2018-04-10T19:04:15.672Z,56.60
2018-04-10T19:06:44.574Z,56.30
2018-04-10T19:09:12.746Z,56.20
2018-04-10T19:11:40.925Z,56.20
2018-04-10T19:14:09.186Z,55.90
2018-04-10T19:16:38.080Z,56.20
2018-04-10T19:19:06.969Z,56.70
2018-04-10T19:21:35.845Z,56.40
2018-04-10T19:24:03.994Z,56.40
2018-04-10T19:26:32.093Z,56.40
2018-04-10T19:29:01.001Z,56.80
2018-04-10T19:31:29.105Z,56.20
2018-04-10T19:33:57.213Z,57.00
2018-04-10T19:36:25.361Z,57.60
2018-04-10T19:38:53.514Z,56.70
2018-04-10T19:41:21.617Z,56.80
2018-04-10T19:43:49.852Z,57.00
2018-04-10T19:46:17.960Z,56.80
2018-04-10T19:48:46.077Z,56.70
2018-04-10T19:51:14.968Z,57.70
2018-04-10T19:53:43.852Z,57.20
2018-04-10T19:56:12.762Z,57.20
2018-04-10T19:58:40.901Z,57.20
2018-04-10T20:01:09.004Z,57.40
2018-04-10T20:03:37.509Z,57.50
2018-04-10T20:06:06.089Z,57.40
2018-04-10T20:08:34.466Z,57.60
2018-04-10T20:11:02.618Z,57.60
2018-04-10T20:13:30.772Z,57.50
2018-04-10T20:15:58.868Z,57.40
2018-04-10T20:18:27.045Z,57.40
2018-04-10T20:20:55.168Z,57.20
2018-04-10T20:23:23.390Z,57.60
2018-04-10T20:25:51.522Z,57.20
2018-04-10T20:28:19.690Z,57.70
2018-04-10T20:30:47.804Z,57.50
2018-04-10T20:33:16.690Z,57.50
2018-04-10T20:35:45.579Z,57.70
2018-04-10T20:38:14.497Z,57.70
2018-04-10T20:40:42.605Z,57.60
2018-04-10T20:43:10.823Z,57.90
2018-04-10T20:45:39.813Z,58.40
2018-04-10T20:48:08.737Z,57.90
2018-04-10T20:50:57.664Z,57.90
2018-04-10T20:53:26.560Z,57.80
2018-04-10T20:55:55.419Z,57.70
2018-04-10T20:58:23.628Z,57.70
2018-04-10T21:00:51.746Z,57.40
2018-04-10T21:03:19.852Z,57.30
2018-04-10T21:05:48.734Z,57.90
2018-04-10T21:08:16.935Z,57.80
2018-04-10T21:10:45.139Z,57.30
2018-04-10T21:13:13.286Z,57.20
2018-04-10T21:15:41.403Z,56.80
2018-04-10T21:18:09.521Z,57.30
2018-04-10T21:20:38.452Z,57.10
2018-04-10T21:23:06.565Z,57.10
2018-04-10T21:25:34.709Z,57.40
2018-04-10T21:28:02.847Z,58.30
2018-04-10T21:30:31.721Z,57.80
2018-04-10T21:33:00.603Z,57.70
2018-04-10T21:35:29.474Z,57.70
2018-04-10T21:37:57.597Z,57.60
2018-04-10T21:40:25.722Z,57.60
2018-04-10T21:42:59.574Z,57.60
2018-04-10T21:45:27.693Z,57.70
2018-04-10T21:47:55.819Z,57.80
2018-04-10T21:50:23.933Z,58.00
2018-04-10T21:52:52.149Z,58.00
2018-04-10T21:55:21.029Z,57.80
2018-04-10T21:57:49.942Z,58.00
2018-04-10T22:00:18.085Z,57.90
2018-04-10T22:02:46.288Z,58.00
2018-04-10T22:05:14.404Z,57.80
2018-04-10T22:07:42.624Z,57.90
2018-04-10T22:10:10.806Z,58.10
2018-04-10T22:12:39.239Z,57.90
2018-04-10T22:15:07.344Z,58.10
2018-04-10T22:17:36.271Z,58.80
2018-04-10T22:20:04.509Z,58.80
2018-04-10T22:22:33.381Z,59.00
2018-04-10T22:25:02.259Z,59.10
2018-04-10T22:27:30.405Z,59.00
2018-04-10T22:29:58.524Z,59.60
2018-04-10T22:32:27.406Z,59.70
2018-04-10T22:34:55.494Z,59.60
2018-04-10T22:37:23.609Z,59.50
2018-04-10T22:39:51.725Z,59.90
2018-04-10T22:42:19.843Z,59.80
2018-04-10T22:44:47.965Z,59.70
2018-04-10T22:47:16.846Z,59.90
2018-04-10T22:49:45.848Z,59.70
2018-04-10T22:52:14.714Z,59.30
2018-04-10T22:54:42.821Z,59.30
2018-04-10T22:57:10.958Z,59.70
2018-04-10T22:59:39.066Z,59.50
2018-04-10T23:02:07.196Z,59.20
2018-04-10T23:04:35.349Z,60.70
2018-04-10T23:07:03.471Z,61.50
2018-04-10T23:09:32.353Z,61.20
2018-04-10T23:12:00.741Z,61.20
2018-04-10T23:14:29.659Z,60.20
2018-04-10T23:16:57.770Z,60.70
2018-04-10T23:19:25.898Z,61.00
2018-04-10T23:21:54.800Z,60.80
2018-04-10T23:24:23.669Z,61.50
2018-04-10T23:26:52.543Z,61.50
2018-04-10T23:29:20.679Z,61.40
2018-04-10T23:31:48.805Z,60.70
2018-04-10T23:34:18.421Z,61.70
2018-04-10T23:36:46.524Z,61.70
2018-04-10T23:39:14.643Z,61.40
2018-04-10T23:41:42.768Z,61.00
2018-04-10T23:44:11.636Z,60.90
2018-04-10T23:46:40.514Z,60.80
2018-04-10T23:49:08.653Z,60.70
2018-04-10T23:51:36.773Z,61.00
2018-04-10T23:54:05.636Z,60.70
2018-04-10T23:56:33.754Z,60.60
2018-04-10T23:59:02.734Z,60.30
